sensor_id;sensor_type;location;lat;lon;timestamp;temperature;humidity
11005;DHT22;5555;59.622;16.556;2023-04-30T00:01:38;2.50;99.90
11005;DHT22;5555;59.622;16.556;2023-04-30T00:04:04;2.50;99.90
11005;DHT22;5555;59.622;16.556;2023-04-30T00:06:30;2.50;99.90
11005;DHT22;5555;59.622;16.556;2023-04-30T00:08:56;2.50;99.90
11005;DHT22;5555;59.622;16.556;2023-04-30T00:11:21;2.50;99.90
11005;DHT22;5555;59.622;16.556;2023-04-30T00:13:47;2.50;99.90
11005;DHT22;5555;59.622;16.556;2023-04-30T00:16:13;2.50;99.90
11005;DHT22;5555;59.622;16.556;2023-04-30T00:18:39;2.50;99.90
11005;DHT22;5555;59.622;16.556;2023-04-30T00:21:04;2.60;99.90
11005;DHT22;5555;59.622;16.556;2023-04-30T00:23:30;2.50;99.90
11005;DHT22;5555;59.622;16.556;2023-04-30T00:25:56;2.50;99.90
11005;DHT22;5555;59.622;16.556;2023-04-30T00:28:21;2.50;99.90
11005;DHT22;5555;59.622;16.556;2023-04-30T00:30:47;2.50;99.90
11005;DHT22;5555;59.622;16.556;2023-04-30T00:33:12;2.50;99.90
11005;DHT22;5555;59.622;16.556;2023-04-30T00:35:38;2.50;99.90
11005;DHT22;5555;59.622;16.556;2023-04-30T00:38:04;2.50;99.90
11005;DHT22;5555;59.622;16.556;2023-04-30T00:40:30;2.50;99.90
11005;DHT22;5555;59.622;16.556;2023-04-30T00:42:55;2.50;99.90
11005;DHT22;5555;59.622;16.556;2023-04-30T00:45:21;2.40;99.90
11005;DHT22;5555;59.622;16.556;2023-04-30T00:47:47;2.40;99.90
11005;DHT22;5555;59.622;16.556;2023-04-30T00:50:14;2.40;99.90
11005;DHT22;5555;59.622;16.556;2023-04-30T00:52:44;2.40;99.90
11005;DHT22;5555;59.622;16.556;2023-04-30T00:55:11;2.30;99.90
11005;DHT22;5555;59.622;16.556;2023-04-30T00:57:38;2.30;99.90
11005;DHT22;5555;59.622;16.556;2023-04-30T01:00:04;2.30;99.90
11005;DHT22;5555;59.622;16.556;2023-04-30T01:02:31;2.20;99.90
11005;DHT22;5555;59.622;16.556;2023-04-30T01:04:57;2.10;99.90
11005;DHT22;5555;59.622;16.556;2023-04-30T01:07:24;2.10;99.90
11005;DHT22;5555;59.622;16.556;2023-04-30T01:09:53;2.10;99.90
11005;DHT22;5555;59.622;16.556;2023-04-30T01:15:26;2.00;99.90
11005;DHT22;5555;59.622;16.556;2023-04-30T01:18:16;2.00;99.90
11005;DHT22;5555;59.622;16.556;2023-04-30T01:20:53;1.90;99.90
11005;DHT22;5555;59.622;16.556;2023-04-30T01:29:02;1.80;99.90
11005;DHT22;5555;59.622;16.556;2023-04-30T01:31:28;1.80;99.90
11005;DHT22;5555;59.622;16.556;2023-04-30T01:33:54;1.80;99.90
11005;DHT22;5555;59.622;16.556;2023-04-30T01:36:33;1.70;99.90
11005;DHT22;5555;59.622;16.556;2023-04-30T01:44:53;1.60;99.90
11005;DHT22;5555;59.622;16.556;2023-04-30T01:50:52;1.50;99.90
11005;DHT22;5555;59.622;16.556;2023-04-30T01:53:22;1.50;99.90
11005;DHT22;5555;59.622;16.556;2023-04-30T01:55:55;1.50;99.90
11005;DHT22;5555;59.622;16.556;2023-04-30T01:58:23;1.40;99.90
11005;DHT22;5555;59.622;16.556;2023-04-30T02:00:49;1.40;99.90
11005;DHT22;5555;59.622;16.556;2023-04-30T02:03:15;1.30;99.90
11005;DHT22;5555;59.622;16.556;2023-04-30T02:05:40;1.30;99.90
11005;DHT22;5555;59.622;16.556;2023-04-30T02:08:06;1.30;99.90
11005;DHT22;5555;59.622;16.556;2023-04-30T02:10:32;1.30;99.90
11005;DHT22;5555;59.622;16.556;2023-04-30T02:12:57;1.20;99.90
11005;DHT22;5555;59.622;16.556;2023-04-30T02:15:23;1.20;99.90
11005;DHT22;5555;59.622;16.556;2023-04-30T02:17:49;1.20;99.90
11005;DHT22;5555;59.622;16.556;2023-04-30T02:20:14;1.20;99.90
11005;DHT22;5555;59.622;16.556;2023-04-30T02:22:40;1.20;99.90
11005;DHT22;5555;59.622;16.556;2023-04-30T02:25:06;1.20;99.90
11005;DHT22;5555;59.622;16.556;2023-04-30T02:27:32;1.20;99.90
11005;DHT22;5555;59.622;16.556;2023-04-30T02:29:58;1.20;99.90
11005;DHT22;5555;59.622;16.556;2023-04-30T02:32:25;1.20;99.90
11005;DHT22;5555;59.622;16.556;2023-04-30T02:34:50;1.20;99.90
11005;DHT22;5555;59.622;16.556;2023-04-30T02:37:16;1.10;99.90
11005;DHT22;5555;59.622;16.556;2023-04-30T02:39:42;1.10;99.90
11005;DHT22;5555;59.622;16.556;2023-04-30T02:42:07;1.10;99.90
11005;DHT22;5555;59.622;16.556;2023-04-30T02:44:33;1.10;99.90
11005;DHT22;5555;59.622;16.556;2023-04-30T02:47:00;1.00;99.90
11005;DHT22;5555;59.622;16.556;2023-04-30T02:49:26;1.10;99.90
11005;DHT22;5555;59.622;16.556;2023-04-30T02:51:52;1.10;99.90
11005;DHT22;5555;59.622;16.556;2023-04-30T02:54:18;1.00;99.90
11005;DHT22;5555;59.622;16.556;2023-04-30T02:56:43;1.00;99.90
11005;DHT22;5555;59.622;16.556;2023-04-30T02:59:09;1.00;99.90
11005;DHT22;5555;59.622;16.556;2023-04-30T03:01:35;1.00;99.90
11005;DHT22;5555;59.622;16.556;2023-04-30T03:04:01;0.90;99.90
11005;DHT22;5555;59.622;16.556;2023-04-30T03:06:33;1.00;99.90
11005;DHT22;5555;59.622;16.556;2023-04-30T03:08:59;1.00;99.90
11005;DHT22;5555;59.622;16.556;2023-04-30T03:11:25;1.00;99.90
11005;DHT22;5555;59.622;16.556;2023-04-30T03:13:51;1.00;99.90
11005;DHT22;5555;59.622;16.556;2023-04-30T03:16:18;1.00;99.90
11005;DHT22;5555;59.622;16.556;2023-04-30T03:18:45;1.00;99.90
11005;DHT22;5555;59.622;16.556;2023-04-30T03:21:11;1.00;99.90
11005;DHT22;5555;59.622;16.556;2023-04-30T03:23:37;1.00;99.90
11005;DHT22;5555;59.622;16.556;2023-04-30T03:26:02;1.00;99.90
11005;DHT22;5555;59.622;16.556;2023-04-30T03:28:28;1.00;99.90
11005;DHT22;5555;59.622;16.556;2023-04-30T03:30:54;1.10;99.90
11005;DHT22;5555;59.622;16.556;2023-04-30T03:33:19;1.10;99.90
11005;DHT22;5555;59.622;16.556;2023-04-30T03:35:45;1.10;99.90
11005;DHT22;5555;59.622;16.556;2023-04-30T03:38:11;1.10;99.90
11005;DHT22;5555;59.622;16.556;2023-04-30T03:40:36;1.10;99.90
11005;DHT22;5555;59.622;16.556;2023-04-30T03:43:02;1.10;99.90
11005;DHT22;5555;59.622;16.556;2023-04-30T03:45:28;1.10;99.90
11005;DHT22;5555;59.622;16.556;2023-04-30T03:47:53;1.10;99.90
11005;DHT22;5555;59.622;16.556;2023-04-30T03:50:19;1.20;99.90
11005;DHT22;5555;59.622;16.556;2023-04-30T03:52:45;1.20;99.90
11005;DHT22;5555;59.622;16.556;2023-04-30T03:55:11;1.20;99.90
11005;DHT22;5555;59.622;16.556;2023-04-30T03:57:38;1.20;99.90
11005;DHT22;5555;59.622;16.556;2023-04-30T04:00:05;1.20;99.90
11005;DHT22;5555;59.622;16.556;2023-04-30T04:02:32;1.20;99.90
11005;DHT22;5555;59.622;16.556;2023-04-30T04:04:58;1.20;99.90
11005;DHT22;5555;59.622;16.556;2023-04-30T04:07:24;1.30;99.90
11005;DHT22;5555;59.622;16.556;2023-04-30T04:09:49;1.30;99.90
11005;DHT22;5555;59.622;16.556;2023-04-30T04:12:15;1.30;99.90
11005;DHT22;5555;59.622;16.556;2023-04-30T04:14:41;1.40;99.90
11005;DHT22;5555;59.622;16.556;2023-04-30T04:17:06;1.40;99.90
11005;DHT22;5555;59.622;16.556;2023-04-30T04:19:32;1.50;99.90
11005;DHT22;5555;59.622;16.556;2023-04-30T04:21:58;1.50;99.90
11005;DHT22;5555;59.622;16.556;2023-04-30T04:24:24;1.60;99.90
11005;DHT22;5555;59.622;16.556;2023-04-30T04:26:50;1.70;99.90
11005;DHT22;5555;59.622;16.556;2023-04-30T04:29:16;1.70;99.90
11005;DHT22;5555;59.622;16.556;2023-04-30T04:31:42;1.80;99.90
11005;DHT22;5555;59.622;16.556;2023-04-30T04:34:08;1.90;99.90
11005;DHT22;5555;59.622;16.556;2023-04-30T04:36:33;2.00;99.90
11005;DHT22;5555;59.622;16.556;2023-04-30T04:39:00;2.00;99.90
11005;DHT22;5555;59.622;16.556;2023-04-30T04:41:30;2.10;99.90
11005;DHT22;5555;59.622;16.556;2023-04-30T04:44:06;2.20;99.90
11005;DHT22;5555;59.622;16.556;2023-04-30T04:46:33;2.30;99.90
11005;DHT22;5555;59.622;16.556;2023-04-30T04:48:59;2.40;99.90
11005;DHT22;5555;59.622;16.556;2023-04-30T04:51:25;2.50;99.90
11005;DHT22;5555;59.622;16.556;2023-04-30T04:53:51;2.60;99.90
11005;DHT22;5555;59.622;16.556;2023-04-30T04:56:16;2.80;99.90
11005;DHT22;5555;59.622;16.556;2023-04-30T04:58:43;3.00;99.90
11005;DHT22;5555;59.622;16.556;2023-04-30T05:01:09;3.00;99.90
11005;DHT22;5555;59.622;16.556;2023-04-30T05:03:35;3.00;99.90
11005;DHT22;5555;59.622;16.556;2023-04-30T05:06:04;3.00;99.90
11005;DHT22;5555;59.622;16.556;2023-04-30T05:08:30;2.90;99.90
11005;DHT22;5555;59.622;16.556;2023-04-30T05:10:56;2.90;99.90
11005;DHT22;5555;59.622;16.556;2023-04-30T05:13:21;2.90;99.90
11005;DHT22;5555;59.622;16.556;2023-04-30T05:15:50;2.90;99.90
11005;DHT22;5555;59.622;16.556;2023-04-30T05:18:16;2.80;99.90
11005;DHT22;5555;59.622;16.556;2023-04-30T05:20:41;3.00;99.90
11005;DHT22;5555;59.622;16.556;2023-04-30T05:23:07;3.20;99.90
11005;DHT22;5555;59.622;16.556;2023-04-30T05:25:34;3.40;99.90
11005;DHT22;5555;59.622;16.556;2023-04-30T05:28:00;3.60;99.90
11005;DHT22;5555;59.622;16.556;2023-04-30T05:30:25;3.60;99.90
11005;DHT22;5555;59.622;16.556;2023-04-30T05:32:52;3.70;99.90
11005;DHT22;5555;59.622;16.556;2023-04-30T05:35:18;3.80;99.90
11005;DHT22;5555;59.622;16.556;2023-04-30T05:37:44;3.90;99.90
11005;DHT22;5555;59.622;16.556;2023-04-30T05:40:10;4.10;99.90
11005;DHT22;5555;59.622;16.556;2023-04-30T05:42:36;4.20;99.90
11005;DHT22;5555;59.622;16.556;2023-04-30T05:45:05;4.30;99.90
11005;DHT22;5555;59.622;16.556;2023-04-30T05:47:31;4.40;99.90
11005;DHT22;5555;59.622;16.556;2023-04-30T05:49:57;4.50;99.90
11005;DHT22;5555;59.622;16.556;2023-04-30T05:52:23;4.60;99.90
11005;DHT22;5555;59.622;16.556;2023-04-30T05:54:48;4.70;99.90
11005;DHT22;5555;59.622;16.556;2023-04-30T05:57:15;4.70;99.90
11005;DHT22;5555;59.622;16.556;2023-04-30T05:59:40;4.90;99.90
11005;DHT22;5555;59.622;16.556;2023-04-30T06:02:06;4.90;99.90
11005;DHT22;5555;59.622;16.556;2023-04-30T06:04:32;5.00;99.90
11005;DHT22;5555;59.622;16.556;2023-04-30T06:06:58;5.20;99.90
11005;DHT22;5555;59.622;16.556;2023-04-30T06:09:23;5.20;99.90
11005;DHT22;5555;59.622;16.556;2023-04-30T06:11:49;5.30;99.90
11005;DHT22;5555;59.622;16.556;2023-04-30T06:14:17;5.30;99.90
11005;DHT22;5555;59.622;16.556;2023-04-30T06:16:45;5.30;99.90
11005;DHT22;5555;59.622;16.556;2023-04-30T06:19:11;5.50;99.90
11005;DHT22;5555;59.622;16.556;2023-04-30T06:21:37;5.50;99.90
11005;DHT22;5555;59.622;16.556;2023-04-30T06:24:03;5.60;99.90
11005;DHT22;5555;59.622;16.556;2023-04-30T06:26:29;5.30;99.90
11005;DHT22;5555;59.622;16.556;2023-04-30T06:28:55;5.40;99.90
11005;DHT22;5555;59.622;16.556;2023-04-30T06:31:21;5.30;99.90
11005;DHT22;5555;59.622;16.556;2023-04-30T06:33:47;5.30;99.90
11005;DHT22;5555;59.622;16.556;2023-04-30T06:36:12;5.30;99.90
11005;DHT22;5555;59.622;16.556;2023-04-30T06:38:39;5.30;99.90
11005;DHT22;5555;59.622;16.556;2023-04-30T06:41:05;5.40;99.90
11005;DHT22;5555;59.622;16.556;2023-04-30T06:43:30;5.20;99.90
11005;DHT22;5555;59.622;16.556;2023-04-30T06:45:56;5.40;99.90
11005;DHT22;5555;59.622;16.556;2023-04-30T06:48:21;5.40;99.90
11005;DHT22;5555;59.622;16.556;2023-04-30T06:50:47;5.50;99.90
11005;DHT22;5555;59.622;16.556;2023-04-30T06:53:14;5.60;99.90
11005;DHT22;5555;59.622;16.556;2023-04-30T06:55:40;5.60;99.90
11005;DHT22;5555;59.622;16.556;2023-04-30T06:58:06;5.70;99.90
11005;DHT22;5555;59.622;16.556;2023-04-30T07:00:33;5.90;99.90
11005;DHT22;5555;59.622;16.556;2023-04-30T07:02:58;6.10;99.90
11005;DHT22;5555;59.622;16.556;2023-04-30T07:05:29;6.10;99.90
11005;DHT22;5555;59.622;16.556;2023-04-30T07:07:55;6.10;99.90
11005;DHT22;5555;59.622;16.556;2023-04-30T07:10:21;6.20;99.90
11005;DHT22;5555;59.622;16.556;2023-04-30T07:12:47;6.20;99.90
11005;DHT22;5555;59.622;16.556;2023-04-30T07:15:12;6.10;99.90
11005;DHT22;5555;59.622;16.556;2023-04-30T07:17:38;6.50;99.90
11005;DHT22;5555;59.622;16.556;2023-04-30T07:20:07;6.50;99.90
11005;DHT22;5555;59.622;16.556;2023-04-30T07:22:33;6.50;99.90
11005;DHT22;5555;59.622;16.556;2023-04-30T07:24:59;6.50;99.90
11005;DHT22;5555;59.622;16.556;2023-04-30T07:27:25;6.50;99.90
11005;DHT22;5555;59.622;16.556;2023-04-30T07:29:51;6.70;99.90
11005;DHT22;5555;59.622;16.556;2023-04-30T07:32:17;6.90;99.90
11005;DHT22;5555;59.622;16.556;2023-04-30T07:34:42;7.10;99.90
11005;DHT22;5555;59.622;16.556;2023-04-30T07:37:08;7.30;99.90
11005;DHT22;5555;59.622;16.556;2023-04-30T07:39:34;7.10;99.90
11005;DHT22;5555;59.622;16.556;2023-04-30T07:42:02;7.20;99.90
11005;DHT22;5555;59.622;16.556;2023-04-30T07:44:28;7.30;99.90
11005;DHT22;5555;59.622;16.556;2023-04-30T07:46:54;7.30;99.90
11005;DHT22;5555;59.622;16.556;2023-04-30T07:49:20;7.20;99.90
11005;DHT22;5555;59.622;16.556;2023-04-30T07:51:46;7.20;99.90
11005;DHT22;5555;59.622;16.556;2023-04-30T07:54:12;7.20;99.90
11005;DHT22;5555;59.622;16.556;2023-04-30T07:56:37;7.40;99.90
11005;DHT22;5555;59.622;16.556;2023-04-30T07:59:04;7.50;99.90
11005;DHT22;5555;59.622;16.556;2023-04-30T08:01:29;7.80;99.90
11005;DHT22;5555;59.622;16.556;2023-04-30T08:03:55;7.80;99.90
11005;DHT22;5555;59.622;16.556;2023-04-30T08:06:21;7.90;99.90
11005;DHT22;5555;59.622;16.556;2023-04-30T08:08:47;7.80;99.90
11005;DHT22;5555;59.622;16.556;2023-04-30T08:11:12;7.70;99.90
11005;DHT22;5555;59.622;16.556;2023-04-30T08:13:39;7.80;99.90
11005;DHT22;5555;59.622;16.556;2023-04-30T08:16:06;7.80;99.90
11005;DHT22;5555;59.622;16.556;2023-04-30T08:18:32;7.80;99.90
11005;DHT22;5555;59.622;16.556;2023-04-30T08:20:58;7.90;99.90
11005;DHT22;5555;59.622;16.556;2023-04-30T08:23:23;8.00;99.90
11005;DHT22;5555;59.622;16.556;2023-04-30T08:25:49;8.10;99.90
11005;DHT22;5555;59.622;16.556;2023-04-30T08:28:16;8.30;99.90
11005;DHT22;5555;59.622;16.556;2023-04-30T08:30:42;8.50;99.90
11005;DHT22;5555;59.622;16.556;2023-04-30T08:33:08;8.40;99.90
11005;DHT22;5555;59.622;16.556;2023-04-30T08:35:33;8.80;99.90
11005;DHT22;5555;59.622;16.556;2023-04-30T08:37:59;8.70;99.90
11005;DHT22;5555;59.622;16.556;2023-04-30T08:40:25;8.40;99.90
11005;DHT22;5555;59.622;16.556;2023-04-30T08:43:05;8.30;99.90
11005;DHT22;5555;59.622;16.556;2023-04-30T08:45:35;8.80;99.90
11005;DHT22;5555;59.622;16.556;2023-04-30T08:48:09;8.70;99.90
11005;DHT22;5555;59.622;16.556;2023-04-30T08:50:38;8.80;99.90
11005;DHT22;5555;59.622;16.556;2023-04-30T08:53:04;9.10;99.90
11005;DHT22;5555;59.622;16.556;2023-04-30T08:55:33;9.10;99.90
11005;DHT22;5555;59.622;16.556;2023-04-30T08:57:58;8.90;99.90
11005;DHT22;5555;59.622;16.556;2023-04-30T09:00:24;9.00;99.90
11005;DHT22;5555;59.622;16.556;2023-04-30T09:02:51;9.10;99.90
11005;DHT22;5555;59.622;16.556;2023-04-30T09:05:17;9.10;99.90
11005;DHT22;5555;59.622;16.556;2023-04-30T09:07:44;9.40;99.90
11005;DHT22;5555;59.622;16.556;2023-04-30T09:10:19;9.10;99.90
11005;DHT22;5555;59.622;16.556;2023-04-30T09:13:04;8.60;99.90
11005;DHT22;5555;59.622;16.556;2023-04-30T09:15:31;8.70;99.90
11005;DHT22;5555;59.622;16.556;2023-04-30T09:18:10;8.80;99.70
11005;DHT22;5555;59.622;16.556;2023-04-30T09:20:37;8.90;99.60
11005;DHT22;5555;59.622;16.556;2023-04-30T09:23:09;9.10;99.90
11005;DHT22;5555;59.622;16.556;2023-04-30T09:25:39;9.60;99.60
11005;DHT22;5555;59.622;16.556;2023-04-30T09:28:10;9.60;98.50
11005;DHT22;5555;59.622;16.556;2023-04-30T09:30:36;9.60;98.70
11005;DHT22;5555;59.622;16.556;2023-04-30T09:33:02;9.30;98.00
11005;DHT22;5555;59.622;16.556;2023-04-30T09:35:36;9.30;97.70
11005;DHT22;5555;59.622;16.556;2023-04-30T09:38:03;9.40;96.60
11005;DHT22;5555;59.622;16.556;2023-04-30T09:40:36;9.50;97.20
11005;DHT22;5555;59.622;16.556;2023-04-30T09:43:03;9.60;96.80
11005;DHT22;5555;59.622;16.556;2023-04-30T09:45:47;10.00;96.60
11005;DHT22;5555;59.622;16.556;2023-04-30T09:48:22;9.90;95.80
11005;DHT22;5555;59.622;16.556;2023-04-30T09:50:49;9.90;96.20
11005;DHT22;5555;59.622;16.556;2023-04-30T09:53:15;10.00;95.40
11005;DHT22;5555;59.622;16.556;2023-04-30T09:55:49;9.80;95.60
11005;DHT22;5555;59.622;16.556;2023-04-30T09:58:17;10.20;95.30
11005;DHT22;5555;59.622;16.556;2023-04-30T10:00:44;10.40;94.30
11005;DHT22;5555;59.622;16.556;2023-04-30T10:03:14;10.30;94.80
11005;DHT22;5555;59.622;16.556;2023-04-30T10:05:42;10.50;93.50
11005;DHT22;5555;59.622;16.556;2023-04-30T10:08:24;10.50;92.80
11005;DHT22;5555;59.622;16.556;2023-04-30T10:10:57;10.40;93.60
11005;DHT22;5555;59.622;16.556;2023-04-30T10:13:25;9.90;93.00
11005;DHT22;5555;59.622;16.556;2023-04-30T10:15:57;10.00;92.30
11005;DHT22;5555;59.622;16.556;2023-04-30T10:18:34;10.30;92.80
11005;DHT22;5555;59.622;16.556;2023-04-30T10:21:02;10.30;90.20
11005;DHT22;5555;59.622;16.556;2023-04-30T10:23:36;10.40;91.30
11005;DHT22;5555;59.622;16.556;2023-04-30T10:26:02;9.90;90.00
11005;DHT22;5555;59.622;16.556;2023-04-30T10:28:28;10.10;89.20
11005;DHT22;5555;59.622;16.556;2023-04-30T10:30:56;10.70;88.90
11005;DHT22;5555;59.622;16.556;2023-04-30T10:33:31;10.70;88.10
11005;DHT22;5555;59.622;16.556;2023-04-30T10:36:02;10.70;86.70
11005;DHT22;5555;59.622;16.556;2023-04-30T10:38:30;10.80;89.40
11005;DHT22;5555;59.622;16.556;2023-04-30T10:40:58;10.80;87.80
11005;DHT22;5555;59.622;16.556;2023-04-30T10:43:25;10.90;88.20
11005;DHT22;5555;59.622;16.556;2023-04-30T10:45:51;10.90;86.90
11005;DHT22;5555;59.622;16.556;2023-04-30T10:48:21;11.30;84.70
11005;DHT22;5555;59.622;16.556;2023-04-30T10:50:54;11.00;84.20
11005;DHT22;5555;59.622;16.556;2023-04-30T10:53:21;10.90;85.10
11005;DHT22;5555;59.622;16.556;2023-04-30T10:56:01;10.70;83.90
11005;DHT22;5555;59.622;16.556;2023-04-30T10:58:32;10.60;83.70
11005;DHT22;5555;59.622;16.556;2023-04-30T11:01:07;11.10;85.20
11005;DHT22;5555;59.622;16.556;2023-04-30T11:03:34;11.30;83.10
11005;DHT22;5555;59.622;16.556;2023-04-30T11:06:07;11.40;82.20
11005;DHT22;5555;59.622;16.556;2023-04-30T11:08:37;12.00;85.20
11005;DHT22;5555;59.622;16.556;2023-04-30T11:11:03;12.00;83.50
11005;DHT22;5555;59.622;16.556;2023-04-30T11:13:44;12.10;84.40
11005;DHT22;5555;59.622;16.556;2023-04-30T11:16:11;11.50;82.10
11005;DHT22;5555;59.622;16.556;2023-04-30T11:18:44;12.20;81.60
11005;DHT22;5555;59.622;16.556;2023-04-30T11:21:11;12.00;79.70
11005;DHT22;5555;59.622;16.556;2023-04-30T11:23:40;12.00;78.20
11005;DHT22;5555;59.622;16.556;2023-04-30T11:26:07;11.80;77.80
11005;DHT22;5555;59.622;16.556;2023-04-30T11:28:33;12.30;79.60
11005;DHT22;5555;59.622;16.556;2023-04-30T11:31:02;12.00;79.10
11005;DHT22;5555;59.622;16.556;2023-04-30T11:33:30;12.50;78.70
11005;DHT22;5555;59.622;16.556;2023-04-30T11:35:57;12.90;77.30
11005;DHT22;5555;59.622;16.556;2023-04-30T11:38:34;12.50;76.50
11005;DHT22;5555;59.622;16.556;2023-04-30T11:41:00;12.70;75.90
11005;DHT22;5555;59.622;16.556;2023-04-30T11:43:31;12.10;75.70
11005;DHT22;5555;59.622;16.556;2023-04-30T11:46:08;12.50;77.00
11005;DHT22;5555;59.622;16.556;2023-04-30T11:48:36;12.90;74.10
11005;DHT22;5555;59.622;16.556;2023-04-30T11:53:40;12.30;72.70
11005;DHT22;5555;59.622;16.556;2023-04-30T11:56:06;12.80;74.40
11005;DHT22;5555;59.622;16.556;2023-04-30T11:58:36;12.60;72.60
11005;DHT22;5555;59.622;16.556;2023-04-30T12:01:07;13.50;74.00
11005;DHT22;5555;59.622;16.556;2023-04-30T12:03:43;13.10;72.30
11005;DHT22;5555;59.622;16.556;2023-04-30T12:06:10;12.30;71.40
11005;DHT22;5555;59.622;16.556;2023-04-30T12:08:36;12.20;72.80
11005;DHT22;5555;59.622;16.556;2023-04-30T12:11:02;12.40;72.00
11005;DHT22;5555;59.622;16.556;2023-04-30T12:13:30;12.70;72.50
11005;DHT22;5555;59.622;16.556;2023-04-30T12:15:57;12.90;71.70
11005;DHT22;5555;59.622;16.556;2023-04-30T12:18:23;12.40;71.50
11005;DHT22;5555;59.622;16.556;2023-04-30T12:20:50;13.00;71.70
11005;DHT22;5555;59.622;16.556;2023-04-30T12:23:16;13.40;71.00
11005;DHT22;5555;59.622;16.556;2023-04-30T12:25:42;13.40;70.70
11005;DHT22;5555;59.622;16.556;2023-04-30T12:28:09;12.50;70.50
11005;DHT22;5555;59.622;16.556;2023-04-30T12:30:34;12.60;70.20
11005;DHT22;5555;59.622;16.556;2023-04-30T12:33:00;12.40;69.70
11005;DHT22;5555;59.622;16.556;2023-04-30T12:35:29;11.40;69.60
11005;DHT22;5555;59.622;16.556;2023-04-30T12:38:05;12.00;70.30
11005;DHT22;5555;59.622;16.556;2023-04-30T12:40:31;12.20;68.60
11005;DHT22;5555;59.622;16.556;2023-04-30T12:43:05;12.30;69.40
11005;DHT22;5555;59.622;16.556;2023-04-30T12:45:47;13.10;68.20
11005;DHT22;5555;59.622;16.556;2023-04-30T12:48:15;13.20;67.60
11005;DHT22;5555;59.622;16.556;2023-04-30T12:50:41;13.40;67.20
11005;DHT22;5555;59.622;16.556;2023-04-30T12:53:07;12.50;65.20
11005;DHT22;5555;59.622;16.556;2023-04-30T12:55:33;11.80;66.10
11005;DHT22;5555;59.622;16.556;2023-04-30T12:58:12;11.50;67.80
11005;DHT22;5555;59.622;16.556;2023-04-30T13:00:57;11.50;67.60
11005;DHT22;5555;59.622;16.556;2023-04-30T13:03:23;11.50;67.60
11005;DHT22;5555;59.622;16.556;2023-04-30T13:05:50;12.50;67.90
11005;DHT22;5555;59.622;16.556;2023-04-30T13:08:17;13.20;66.60
11005;DHT22;5555;59.622;16.556;2023-04-30T13:10:44;13.80;66.30
11005;DHT22;5555;59.622;16.556;2023-04-30T13:13:11;13.00;65.40
11005;DHT22;5555;59.622;16.556;2023-04-30T13:15:37;12.50;65.80
11005;DHT22;5555;59.622;16.556;2023-04-30T13:18:03;12.40;65.80
11005;DHT22;5555;59.622;16.556;2023-04-30T13:20:29;12.20;63.70
11005;DHT22;5555;59.622;16.556;2023-04-30T13:22:54;11.80;63.70
11005;DHT22;5555;59.622;16.556;2023-04-30T13:25:20;13.20;67.00
11005;DHT22;5555;59.622;16.556;2023-04-30T13:27:46;14.60;68.10
11005;DHT22;5555;59.622;16.556;2023-04-30T13:30:12;14.50;64.30
11005;DHT22;5555;59.622;16.556;2023-04-30T13:32:38;14.80;64.90
11005;DHT22;5555;59.622;16.556;2023-04-30T13:35:04;15.10;62.60
11005;DHT22;5555;59.622;16.556;2023-04-30T13:37:29;14.70;63.10
11005;DHT22;5555;59.622;16.556;2023-04-30T13:39:58;14.70;65.40
11005;DHT22;5555;59.622;16.556;2023-04-30T13:42:25;15.40;64.10
11005;DHT22;5555;59.622;16.556;2023-04-30T13:44:51;15.90;61.20
11005;DHT22;5555;59.622;16.556;2023-04-30T13:47:17;14.90;61.70
11005;DHT22;5555;59.622;16.556;2023-04-30T13:49:44;15.30;62.40
11005;DHT22;5555;59.622;16.556;2023-04-30T13:52:09;16.10;61.60
11005;DHT22;5555;59.622;16.556;2023-04-30T13:54:35;15.50;60.20
11005;DHT22;5555;59.622;16.556;2023-04-30T13:57:01;14.50;60.60
11005;DHT22;5555;59.622;16.556;2023-04-30T13:59:27;13.90;61.40
11005;DHT22;5555;59.622;16.556;2023-04-30T14:01:53;13.70;61.10
11005;DHT22;5555;59.622;16.556;2023-04-30T14:04:19;13.20;61.40
11005;DHT22;5555;59.622;16.556;2023-04-30T14:06:44;13.00;61.50
11005;DHT22;5555;59.622;16.556;2023-04-30T14:09:10;12.80;61.70
11005;DHT22;5555;59.622;16.556;2023-04-30T14:11:36;12.50;62.60
11005;DHT22;5555;59.622;16.556;2023-04-30T14:14:02;13.80;61.60
11005;DHT22;5555;59.622;16.556;2023-04-30T14:16:27;14.40;62.00
11005;DHT22;5555;59.622;16.556;2023-04-30T14:18:54;15.50;59.00
11005;DHT22;5555;59.622;16.556;2023-04-30T14:21:20;15.90;60.00
11005;DHT22;5555;59.622;16.556;2023-04-30T14:23:45;15.10;59.20
11005;DHT22;5555;59.622;16.556;2023-04-30T14:26:12;14.00;59.00
11005;DHT22;5555;59.622;16.556;2023-04-30T14:28:37;12.70;59.70
11005;DHT22;5555;59.622;16.556;2023-04-30T14:31:03;12.20;60.40
11005;DHT22;5555;59.622;16.556;2023-04-30T14:33:30;12.30;60.50
11005;DHT22;5555;59.622;16.556;2023-04-30T14:35:57;12.80;61.20
11005;DHT22;5555;59.622;16.556;2023-04-30T14:38:24;14.10;61.00
11005;DHT22;5555;59.622;16.556;2023-04-30T14:40:50;13.50;59.50
11005;DHT22;5555;59.622;16.556;2023-04-30T14:43:15;12.90;60.60
11005;DHT22;5555;59.622;16.556;2023-04-30T14:45:41;13.70;60.30
11005;DHT22;5555;59.622;16.556;2023-04-30T14:48:09;13.90;60.80
11005;DHT22;5555;59.622;16.556;2023-04-30T14:50:34;13.30;60.00
11005;DHT22;5555;59.622;16.556;2023-04-30T14:53:00;12.80;58.60
11005;DHT22;5555;59.622;16.556;2023-04-30T14:55:25;12.40;58.90
11005;DHT22;5555;59.622;16.556;2023-04-30T14:57:51;12.10;59.70
11005;DHT22;5555;59.622;16.556;2023-04-30T15:00:18;11.90;59.70
11005;DHT22;5555;59.622;16.556;2023-04-30T15:02:43;11.80;59.60
11005;DHT22;5555;59.622;16.556;2023-04-30T15:05:09;11.80;60.00
11005;DHT22;5555;59.622;16.556;2023-04-30T15:07:35;12.00;59.60
11005;DHT22;5555;59.622;16.556;2023-04-30T15:10:01;12.90;58.70
11005;DHT22;5555;59.622;16.556;2023-04-30T15:12:27;13.60;57.40
11005;DHT22;5555;59.622;16.556;2023-04-30T15:14:53;13.10;57.30
11005;DHT22;5555;59.622;16.556;2023-04-30T15:17:19;13.70;57.50
11005;DHT22;5555;59.622;16.556;2023-04-30T15:19:45;14.90;56.20
11005;DHT22;5555;59.622;16.556;2023-04-30T15:22:11;15.30;55.70
11005;DHT22;5555;59.622;16.556;2023-04-30T15:24:36;14.70;55.50
11005;DHT22;5555;59.622;16.556;2023-04-30T15:27:02;13.10;56.80
11005;DHT22;5555;59.622;16.556;2023-04-30T15:29:29;12.30;56.70
11005;DHT22;5555;59.622;16.556;2023-04-30T15:31:54;12.10;58.10
11005;DHT22;5555;59.622;16.556;2023-04-30T15:34:21;11.80;58.50
11005;DHT22;5555;59.622;16.556;2023-04-30T15:36:48;11.70;59.50
11005;DHT22;5555;59.622;16.556;2023-04-30T15:39:13;12.00;59.40
11005;DHT22;5555;59.622;16.556;2023-04-30T15:41:39;12.70;60.00
11005;DHT22;5555;59.622;16.556;2023-04-30T15:44:05;13.80;59.00
11005;DHT22;5555;59.622;16.556;2023-04-30T15:46:30;14.10;57.40
11005;DHT22;5555;59.622;16.556;2023-04-30T15:48:58;14.20;56.50
11005;DHT22;5555;59.622;16.556;2023-04-30T15:51:23;15.60;55.00
11005;DHT22;5555;59.622;16.556;2023-04-30T15:53:49;15.60;53.90
11005;DHT22;5555;59.622;16.556;2023-04-30T15:56:14;15.30;53.90
11005;DHT22;5555;59.622;16.556;2023-04-30T15:58:42;15.50;53.60
11005;DHT22;5555;59.622;16.556;2023-04-30T16:01:07;16.40;53.40